Map

Track Data

SID SEASON NUMBER BASIN SUBBASIN NAME ISO_TIME NATURE LAT LON WMO_WIND WMO_PRES WMO_AGENCY TRACK_TYPE DIST2LAND LANDFALL IFLAG USA_AGENCY USA_ATCF_ID USA_LAT USA_LON USA_RECORD USA_STATUS USA_WIND USA_PRES USA_SSHS USA_R34_NE USA_R34_SE USA_R34_SW USA_R34_NW USA_R50_NE USA_R50_SE USA_R50_SW USA_R50_NW USA_R64_NE USA_R64_SE USA_R64_SW USA_R64_NW USA_POCI USA_ROCI USA_RMW USA_EYE TOKYO_LAT TOKYO_LON TOKYO_GRADE TOKYO_WIND TOKYO_PRES TOKYO_R50_DIR TOKYO_R50_LONG TOKYO_R50_SHORT TOKYO_R30_DIR TOKYO_R30_LONG TOKYO_R30_SHORT TOKYO_LAND CMA_LAT CMA_LON CMA_CAT CMA_WIND CMA_PRES HKO_LAT HKO_LON HKO_CAT HKO_WIND HKO_PRES NEWDELHI_LAT NEWDELHI_LON NEWDELHI_GRADE NEWDELHI_WIND NEWDELHI_PRES NEWDELHI_CI NEWDELHI_DP NEWDELHI_POCI REUNION_LAT REUNION_LON REUNION_TYPE REUNION_WIND REUNION_PRES REUNION_TNUM REUNION_CI REUNION_RMW REUNION_R34_NE REUNION_R34_SE REUNION_R34_SW REUNION_R34_NW REUNION_R50_NE REUNION_R50_SE REUNION_R50_SW REUNION_R50_NW REUNION_R64_NE REUNION_R64_SE REUNION_R64_SW REUNION_R64_NW BOM_LAT BOM_LON BOM_TYPE BOM_WIND BOM_PRES BOM_TNUM BOM_CI BOM_RMW BOM_R34_NE BOM_R34_SE BOM_R34_SW BOM_R34_NW BOM_R50_NE BOM_R50_SE BOM_R50_SW BOM_R50_NW BOM_R64_NE BOM_R64_SE BOM_R64_SW BOM_R64_NW BOM_ROCI BOM_POCI BOM_EYE BOM_POS_METHOD BOM_PRES_METHOD NADI_LAT NADI_LON NADI_CAT NADI_WIND NADI_PRES WELLINGTON_LAT WELLINGTON_LON WELLINGTON_WIND WELLINGTON_PRES DS824_LAT DS824_LON DS824_STAGE DS824_WIND DS824_PRES TD9636_LAT TD9636_LON TD9636_STAGE TD9636_WIND TD9636_PRES TD9635_LAT TD9635_LON TD9635_WIND TD9635_PRES TD9635_ROCI NEUMANN_LAT NEUMANN_LON NEUMANN_CLASS NEUMANN_WIND NEUMANN_PRES MLC_LAT MLC_LON MLC_CLASS MLC_WIND MLC_PRES USA_GUST BOM_GUST BOM_GUST_PER REUNION_GUST REUNION_GUST_PER USA_SEAHGT USA_SEARAD_NE USA_SEARAD_SE USA_SEARAD_SW USA_SEARAD_NW STORM_SPEED STORM_DIR
1979319N09272 1979 109 EP MM JIMENA 1979-11-15 06:00:00 TS 8.50000 -88.0000 30 hurdat_epa main 297 297 O________OO___ hurdat_epa EP101979 8.50000 -88.0000 TD 30 -1 8.50000 -88.0000 TC 30 8.50000 -88.0000 1 30 10 270
1979319N09272 1979 109 EP MM JIMENA 1979-11-15 09:00:00 TS 8.50098 -88.5000 main 345 345 P________PP___ EP101979 8.50013 -88.5000 TD 30 -1 8.50013 -88.5000 TC 30 8.50441 -88.4999 1 30 10 270
1979319N09272 1979 109 EP MM JIMENA 1979-11-15 12:00:00 TS 8.50000 -89.0000 30 hurdat_epa main 394 394 O________OO___ hurdat_epa EP101979 8.50000 -89.0000 TD 30 -1 8.50000 -89.0000 TC 30 8.50000 -89.0000 1 30 10 270
1979319N09272 1979 109 EP MM JIMENA 1979-11-15 15:00:00 TS 8.49651 -89.5000 main 445 445 P________PP___ EP101979 8.49994 -89.5000 TD 30 -1 8.49994 -89.5000 TC 30 8.48281 -89.5002 1 32 10 270
1979319N09272 1979 109 EP MM JIMENA 1979-11-15 18:00:00 TS 8.49314 -90.0001 30 hurdat_epa main 497 497 O________OP___ hurdat_epa EP101979 8.50000 -90.0000 TD 30 -1 8.50000 -90.0000 TC 30 8.46571 -90.0003 1 35 10 269
1979319N09272 1979 109 EP MM JIMENA 1979-11-15 21:00:00 TS 8.48110 -90.5001 main 547 547 P________PP___ EP101979 8.48494 -90.5001 TD 35 0 8.48494 -90.5001 TC 35 8.46575 -90.5003 1 37 10 270
1979319N09272 1979 109 EP MM JIMENA 1979-11-16 00:00:00 TS 8.50000 -91.0000 40 hurdat_epa main 575 575 O________OO___ hurdat_epa EP101979 8.50000 -91.0000 TS 40 0 8.50000 -91.0000 TC 40 8.50000 -91.0000 2 40 10 275
1979319N09272 1979 109 EP MM JIMENA 1979-11-16 03:00:00 TS 8.57405 -91.5016 main 579 579 P________PP___ EP101979 8.57744 -91.5000 TS 42 0 8.57744 -91.5000 TC 42 8.56051 -91.5082 2 42 10 281
1979319N09272 1979 109 EP MM JIMENA 1979-11-16 06:00:00 TS 8.69197 -92.0031 45 hurdat_epa main 587 579 O________OP___ hurdat_epa EP101979 8.70000 -92.0000 TS 45 0 8.70000 -92.0000 TC 45 8.65987 -92.0152 2 45 10 285
1979319N09272 1979 109 EP MM JIMENA 1979-11-16 09:00:00 TS 8.82878 -92.4970 main 585 575 P________PP___ EP101979 8.83490 -92.4926 TS 47 0 8.83490 -92.4926 TC 47 8.80428 -92.5146 2 47 10 287
1979319N09272 1979 109 EP MM JIMENA 1979-11-16 12:00:00 TS 9.00000 -93.0000 50 hurdat_epa main 579 576 O________OO___ hurdat_epa EP101979 9.00000 -93.0000 TS 50 0 9.00000 -93.0000 TC 50 9.00000 -93.0000 2 50 11 289
1979319N09272 1979 109 EP MM JIMENA 1979-11-16 15:00:00 TS 9.18400 -93.5501 main 583 577 P________PP___ EP101979 9.16257 -93.5726 TS 52 0 9.16257 -93.5726 TC 52 9.26970 -93.4601 2 51 11 293
1979319N09272 1979 109 EP MM JIMENA 1979-11-16 18:00:00 TS 9.43692 -94.0614 55 hurdat_epa main 589 568 O________OP___ hurdat_epa EP101979 9.40000 -94.1000 TS 55 0 9.40000 -94.1000 TC 55 9.58460 -93.9072 2 52 11 305
1979319N09272 1979 109 EP MM JIMENA 1979-11-16 21:00:00 TS 9.80929 -94.4422 main 568 554 P________PP___ EP101979 9.78481 -94.4651 TS 55 0 9.78481 -94.4651 TC 55 9.90720 -94.3508 2 53 11 316
1979319N09272 1979 109 EP MM JIMENA 1979-11-17 00:00:00 TS 10.2000 -94.8000 55 hurdat_epa main 554 547 O________OO___ hurdat_epa EP101979 10.2000 -94.8000 TS 55 0 10.2000 -94.8000 TC 55 10.2000 -94.8000 2 55 11 313
1979319N09272 1979 109 EP MM JIMENA 1979-11-17 03:00:00 TS 10.5306 -95.2347 main 553 546 P________PP___ EP101979 10.5525 -95.2274 TS 52 0 10.5525 -95.2274 TC 52 10.4432 -95.2638 2 52 11 303
1979319N09272 1979 109 EP MM JIMENA 1979-11-17 06:00:00 TS 10.7694 -95.7070 50 hurdat_epa main 546 528 O________OP___ hurdat_epa EP101979 10.8000 -95.7000 TS 50 0 10.8000 -95.7000 TC 50 10.6472 -95.7349 2 50 10 290
1979319N09272 1979 109 EP MM JIMENA 1979-11-17 09:00:00 TS 10.8764 -96.1908 main 528 526 P________PP___ EP101979 10.8949 -96.1852 TS 47 0 10.8949 -96.1852 TC 47 10.8026 -96.2136 2 47 10 278
1979319N09272 1979 109 EP MM JIMENA 1979-11-17 12:00:00 TS 10.9000 -96.7000 45 hurdat_epa main 526 526 O________OO___ hurdat_epa EP101979 10.9000 -96.7000 TS 45 0 10.9000 -96.7000 TC 45 10.9000 -96.7000 2 45 10 272
1979319N09272 1979 109 EP MM JIMENA 1979-11-17 15:00:00 TS 10.9189 -97.2447 main 530 530 P________PP___ EP101979 10.9150 -97.2575 TS 40 0 10.9150 -97.2575 TC 40 10.9344 -97.1937 2 41 11 270
1979319N09272 1979 109 EP MM JIMENA 1979-11-17 18:00:00 TS 10.9029 -97.7831 35 hurdat_epa main 542 542 O________OP___ hurdat_epa EP101979 10.9000 -97.8000 TS 35 0 10.9000 -97.8000 TC 35 10.9182 -97.6929 2 37 10 266
1979319N09272 1979 109 EP MM JIMENA 1979-11-17 21:00:00 TS 10.8519 -98.2573 main 557 557 P________PP___ EP101979 10.8499 -98.2651 TS 32 -1 10.8499 -98.2651 TC 32 10.8678 -98.1957 2 33 9 263
1979319N09272 1979 109 EP MM JIMENA 1979-11-18 00:00:00 TS 10.8000 -98.7000 30 hurdat_epa main 583 583 O________OO___ hurdat_epa EP101979 10.8000 -98.7000 TD 30 -1 10.8000 -98.7000 TC 30 10.8000 -98.7000 1 30 9 266
1979319N09272 1979 109 EP MM JIMENA 1979-11-18 03:00:00 TS 10.7877 -99.1450 main 598 598 P________P____ EP101979 10.7877 -99.1450 TD 27 -1 10.7877 -99.1450 TC 27 1 9 270
1979319N09272 1979 109 EP MM JIMENA 1979-11-18 06:00:00 TS 10.8000 -99.6000 25 hurdat_epa main 613 O________O____ hurdat_epa EP101979 10.8000 -99.6000 TD 25 -1 10.8000 -99.6000 TC 25 1 9 272

About IBTrACS Database

This database is a web-friendly format of International Best Track Archive for Climate Stewardship (IBTrACS), a global best track data archive curated by NOAA dating back to 1842.

Updated: 2021-10-08